sensor_id;sensor_type;location;lat;lon;timestamp;temperature;humidity
51733;DHT22;39139;53.144;6.244;2024-02-26T00:02:14;2.70;99.90
51733;DHT22;39139;53.144;6.244;2024-02-26T00:04:40;2.60;99.90
51733;DHT22;39139;53.144;6.244;2024-02-26T00:07:05;2.70;99.90
51733;DHT22;39139;53.144;6.244;2024-02-26T00:09:32;2.80;99.90
51733;DHT22;39139;53.144;6.244;2024-02-26T00:12:01;2.70;99.90
51733;DHT22;39139;53.144;6.244;2024-02-26T00:14:26;2.70;99.90
51733;DHT22;39139;53.144;6.244;2024-02-26T00:16:52;2.90;99.90
51733;DHT22;39139;53.144;6.244;2024-02-26T00:19:18;2.90;99.90
51733;DHT22;39139;53.144;6.244;2024-02-26T00:21:43;2.60;99.90
51733;DHT22;39139;53.144;6.244;2024-02-26T00:24:09;3.00;99.90
51733;DHT22;39139;53.144;6.244;2024-02-26T00:26:34;2.70;99.90
51733;DHT22;39139;53.144;6.244;2024-02-26T00:29:00;2.50;99.90
51733;DHT22;39139;53.144;6.244;2024-02-26T00:31:25;2.60;99.90
51733;DHT22;39139;53.144;6.244;2024-02-26T00:33:51;3.00;99.90
51733;DHT22;39139;53.144;6.244;2024-02-26T00:36:17;2.90;99.90
51733;DHT22;39139;53.144;6.244;2024-02-26T00:38:44;2.80;99.90
51733;DHT22;39139;53.144;6.244;2024-02-26T00:41:11;2.80;99.90
51733;DHT22;39139;53.144;6.244;2024-02-26T00:43:37;2.60;99.90
51733;DHT22;39139;53.144;6.244;2024-02-26T00:46:04;2.80;99.90
51733;DHT22;39139;53.144;6.244;2024-02-26T00:48:30;2.80;99.90
51733;DHT22;39139;53.144;6.244;2024-02-26T00:50:56;2.80;99.90
51733;DHT22;39139;53.144;6.244;2024-02-26T00:53:21;2.60;99.90
51733;DHT22;39139;53.144;6.244;2024-02-26T00:55:47;2.60;99.90
51733;DHT22;39139;53.144;6.244;2024-02-26T00:58:13;3.10;99.90
51733;DHT22;39139;53.144;6.244;2024-02-26T01:00:38;2.50;99.90
51733;DHT22;39139;53.144;6.244;2024-02-26T01:03:04;2.50;99.90
51733;DHT22;39139;53.144;6.244;2024-02-26T01:05:30;2.70;99.90
51733;DHT22;39139;53.144;6.244;2024-02-26T01:07:55;2.60;99.90
51733;DHT22;39139;53.144;6.244;2024-02-26T01:10:21;2.50;99.90
51733;DHT22;39139;53.144;6.244;2024-02-26T01:12:46;2.60;99.90
51733;DHT22;39139;53.144;6.244;2024-02-26T01:15:13;2.60;99.90
51733;DHT22;39139;53.144;6.244;2024-02-26T01:17:38;2.60;99.90
51733;DHT22;39139;53.144;6.244;2024-02-26T01:20:05;3.30;99.90
51733;DHT22;39139;53.144;6.244;2024-02-26T01:22:30;2.30;99.90
51733;DHT22;39139;53.144;6.244;2024-02-26T01:24:56;2.40;99.90
51733;DHT22;39139;53.144;6.244;2024-02-26T01:27:22;2.40;99.90
51733;DHT22;39139;53.144;6.244;2024-02-26T01:29:52;2.60;99.90
51733;DHT22;39139;53.144;6.244;2024-02-26T01:32:17;2.60;99.90
51733;DHT22;39139;53.144;6.244;2024-02-26T01:34:43;2.70;99.90
51733;DHT22;39139;53.144;6.244;2024-02-26T01:37:09;2.40;99.90
51733;DHT22;39139;53.144;6.244;2024-02-26T01:39:35;2.60;99.90
51733;DHT22;39139;53.144;6.244;2024-02-26T01:42:01;2.60;99.90
51733;DHT22;39139;53.144;6.244;2024-02-26T01:44:26;2.70;99.90
51733;DHT22;39139;53.144;6.244;2024-02-26T01:46:53;2.60;99.90
51733;DHT22;39139;53.144;6.244;2024-02-26T01:49:19;2.60;99.90
51733;DHT22;39139;53.144;6.244;2024-02-26T01:51:45;2.50;99.90
51733;DHT22;39139;53.144;6.244;2024-02-26T01:54:11;2.60;99.90
51733;DHT22;39139;53.144;6.244;2024-02-26T01:56:39;2.40;99.90
51733;DHT22;39139;53.144;6.244;2024-02-26T01:59:05;2.90;99.90
51733;DHT22;39139;53.144;6.244;2024-02-26T02:01:33;2.60;99.90
51733;DHT22;39139;53.144;6.244;2024-02-26T02:04:00;2.40;99.90
51733;DHT22;39139;53.144;6.244;2024-02-26T02:06:27;3.00;99.90
51733;DHT22;39139;53.144;6.244;2024-02-26T02:08:54;2.50;99.90
51733;DHT22;39139;53.144;6.244;2024-02-26T02:11:20;2.80;99.90
51733;DHT22;39139;53.144;6.244;2024-02-26T02:13:46;2.50;99.90
51733;DHT22;39139;53.144;6.244;2024-02-26T02:16:12;2.50;99.90
51733;DHT22;39139;53.144;6.244;2024-02-26T02:18:38;2.50;99.90
51733;DHT22;39139;53.144;6.244;2024-02-26T02:21:04;2.60;99.90
51733;DHT22;39139;53.144;6.244;2024-02-26T02:23:29;2.60;99.90
51733;DHT22;39139;53.144;6.244;2024-02-26T02:25:56;2.80;99.90
51733;DHT22;39139;53.144;6.244;2024-02-26T02:28:23;2.40;99.90
51733;DHT22;39139;53.144;6.244;2024-02-26T02:30:50;2.50;99.90
51733;DHT22;39139;53.144;6.244;2024-02-26T02:33:16;2.50;99.90
51733;DHT22;39139;53.144;6.244;2024-02-26T02:35:42;2.60;99.90
51733;DHT22;39139;53.144;6.244;2024-02-26T02:38:08;2.40;99.90
51733;DHT22;39139;53.144;6.244;2024-02-26T02:40:33;2.60;99.90
51733;DHT22;39139;53.144;6.244;2024-02-26T02:42:59;3.00;99.90
51733;DHT22;39139;53.144;6.244;2024-02-26T02:45:28;2.70;99.90
51733;DHT22;39139;53.144;6.244;2024-02-26T02:47:54;2.50;99.90
51733;DHT22;39139;53.144;6.244;2024-02-26T02:50:20;2.60;99.90
51733;DHT22;39139;53.144;6.244;2024-02-26T02:52:45;2.70;99.90
51733;DHT22;39139;53.144;6.244;2024-02-26T02:55:11;2.60;99.90
51733;DHT22;39139;53.144;6.244;2024-02-26T02:57:37;2.80;99.90
51733;DHT22;39139;53.144;6.244;2024-02-26T03:00:07;3.00;99.90
51733;DHT22;39139;53.144;6.244;2024-02-26T03:02:33;2.80;99.90
51733;DHT22;39139;53.144;6.244;2024-02-26T03:05:01;2.70;99.90
51733;DHT22;39139;53.144;6.244;2024-02-26T03:07:28;2.70;99.90
51733;DHT22;39139;53.144;6.244;2024-02-26T03:09:53;3.30;99.90
51733;DHT22;39139;53.144;6.244;2024-02-26T03:12:19;2.70;99.90
51733;DHT22;39139;53.144;6.244;2024-02-26T03:14:44;2.90;99.90
51733;DHT22;39139;53.144;6.244;2024-02-26T03:17:10;3.50;99.90
51733;DHT22;39139;53.144;6.244;2024-02-26T03:19:36;2.90;99.90
51733;DHT22;39139;53.144;6.244;2024-02-26T03:22:01;3.00;99.90
51733;DHT22;39139;53.144;6.244;2024-02-26T03:24:27;2.80;99.90
51733;DHT22;39139;53.144;6.244;2024-02-26T03:26:53;2.80;99.90
51733;DHT22;39139;53.144;6.244;2024-02-26T03:29:19;2.90;99.90
51733;DHT22;39139;53.144;6.244;2024-02-26T03:31:44;2.70;99.90
51733;DHT22;39139;53.144;6.244;2024-02-26T03:34:10;2.80;99.90
51733;DHT22;39139;53.144;6.244;2024-02-26T03:36:38;2.90;99.90
51733;DHT22;39139;53.144;6.244;2024-02-26T03:39:03;2.80;99.90
51733;DHT22;39139;53.144;6.244;2024-02-26T03:41:36;2.60;99.90
51733;DHT22;39139;53.144;6.244;2024-02-26T03:44:02;2.90;99.90
51733;DHT22;39139;53.144;6.244;2024-02-26T03:46:28;2.80;99.90
51733;DHT22;39139;53.144;6.244;2024-02-26T03:48:53;2.90;99.90
51733;DHT22;39139;53.144;6.244;2024-02-26T03:51:19;2.80;99.90
51733;DHT22;39139;53.144;6.244;2024-02-26T03:53:45;2.70;99.90
51733;DHT22;39139;53.144;6.244;2024-02-26T03:56:13;2.70;99.90
51733;DHT22;39139;53.144;6.244;2024-02-26T03:58:39;2.90;99.90
51733;DHT22;39139;53.144;6.244;2024-02-26T04:01:07;3.20;99.90
51733;DHT22;39139;53.144;6.244;2024-02-26T04:03:33;2.80;99.90
51733;DHT22;39139;53.144;6.244;2024-02-26T04:06:00;2.60;99.90
51733;DHT22;39139;53.144;6.244;2024-02-26T04:08:25;2.60;99.90
51733;DHT22;39139;53.144;6.244;2024-02-26T04:10:51;2.70;99.90
51733;DHT22;39139;53.144;6.244;2024-02-26T04:13:18;2.60;99.90
51733;DHT22;39139;53.144;6.244;2024-02-26T04:15:43;2.60;99.90
51733;DHT22;39139;53.144;6.244;2024-02-26T04:18:09;2.60;99.90
51733;DHT22;39139;53.144;6.244;2024-02-26T04:20:35;2.40;99.90
51733;DHT22;39139;53.144;6.244;2024-02-26T04:23:00;2.50;99.90
51733;DHT22;39139;53.144;6.244;2024-02-26T04:25:26;2.40;99.90
51733;DHT22;39139;53.144;6.244;2024-02-26T04:27:52;2.60;99.90
51733;DHT22;39139;53.144;6.244;2024-02-26T04:30:17;2.60;99.90
51733;DHT22;39139;53.144;6.244;2024-02-26T04:32:43;2.70;99.90
51733;DHT22;39139;53.144;6.244;2024-02-26T04:35:09;2.60;99.90
51733;DHT22;39139;53.144;6.244;2024-02-26T04:37:35;2.70;99.90
51733;DHT22;39139;53.144;6.244;2024-02-26T04:40:00;2.50;99.90
51733;DHT22;39139;53.144;6.244;2024-02-26T04:42:29;2.80;99.90
51733;DHT22;39139;53.144;6.244;2024-02-26T04:44:55;2.70;99.90
51733;DHT22;39139;53.144;6.244;2024-02-26T04:47:21;2.70;99.90
51733;DHT22;39139;53.144;6.244;2024-02-26T04:49:49;2.70;99.90
51733;DHT22;39139;53.144;6.244;2024-02-26T04:52:15;2.80;99.90
51733;DHT22;39139;53.144;6.244;2024-02-26T04:54:40;3.00;99.90
51733;DHT22;39139;53.144;6.244;2024-02-26T04:57:06;3.20;99.90
51733;DHT22;39139;53.144;6.244;2024-02-26T04:59:32;2.80;99.90
51733;DHT22;39139;53.144;6.244;2024-02-26T05:01:57;2.80;99.90
51733;DHT22;39139;53.144;6.244;2024-02-26T05:04:23;2.70;99.90
51733;DHT22;39139;53.144;6.244;2024-02-26T05:06:48;2.70;99.90
51733;DHT22;39139;53.144;6.244;2024-02-26T05:09:14;3.00;99.90
51733;DHT22;39139;53.144;6.244;2024-02-26T05:11:40;2.90;99.90
51733;DHT22;39139;53.144;6.244;2024-02-26T05:14:06;2.80;99.90
51733;DHT22;39139;53.144;6.244;2024-02-26T05:16:31;2.80;99.90
51733;DHT22;39139;53.144;6.244;2024-02-26T05:18:57;2.80;99.90
51733;DHT22;39139;53.144;6.244;2024-02-26T05:21:23;3.00;99.90
51733;DHT22;39139;53.144;6.244;2024-02-26T05:23:48;1.90;99.90
51733;DHT22;39139;53.144;6.244;2024-02-26T05:26:21;2.80;99.90
51733;DHT22;39139;53.144;6.244;2024-02-26T05:28:47;3.90;99.90
51733;DHT22;39139;53.144;6.244;2024-02-26T05:31:13;3.00;99.90
51733;DHT22;39139;53.144;6.244;2024-02-26T05:33:39;2.80;99.90
51733;DHT22;39139;53.144;6.244;2024-02-26T05:36:05;2.80;99.90
51733;DHT22;39139;53.144;6.244;2024-02-26T05:38:31;2.80;99.90
51733;DHT22;39139;53.144;6.244;2024-02-26T05:40:59;3.00;99.90
51733;DHT22;39139;53.144;6.244;2024-02-26T05:43:28;3.30;99.90
51733;DHT22;39139;53.144;6.244;2024-02-26T05:45:54;3.10;99.90
51733;DHT22;39139;53.144;6.244;2024-02-26T05:48:21;2.90;99.90
51733;DHT22;39139;53.144;6.244;2024-02-26T05:50:47;3.10;99.90
51733;DHT22;39139;53.144;6.244;2024-02-26T05:53:13;2.90;99.90
51733;DHT22;39139;53.144;6.244;2024-02-26T05:55:38;3.90;99.90
51733;DHT22;39139;53.144;6.244;2024-02-26T05:58:04;3.20;99.90
51733;DHT22;39139;53.144;6.244;2024-02-26T06:00:30;3.90;99.90
51733;DHT22;39139;53.144;6.244;2024-02-26T06:02:55;3.10;99.90
51733;DHT22;39139;53.144;6.244;2024-02-26T06:05:21;3.20;99.90
51733;DHT22;39139;53.144;6.244;2024-02-26T06:07:47;3.00;99.90
51733;DHT22;39139;53.144;6.244;2024-02-26T06:10:12;2.90;99.90
51733;DHT22;39139;53.144;6.244;2024-02-26T06:12:39;3.10;99.90
51733;DHT22;39139;53.144;6.244;2024-02-26T06:15:06;3.10;99.90
51733;DHT22;39139;53.144;6.244;2024-02-26T06:17:31;3.10;99.90
51733;DHT22;39139;53.144;6.244;2024-02-26T06:19:57;3.20;99.90
51733;DHT22;39139;53.144;6.244;2024-02-26T06:22:24;3.00;99.90
51733;DHT22;39139;53.144;6.244;2024-02-26T06:24:50;3.00;99.90
51733;DHT22;39139;53.144;6.244;2024-02-26T06:27:16;3.10;99.90
51733;DHT22;39139;53.144;6.244;2024-02-26T06:29:41;3.30;99.90
51733;DHT22;39139;53.144;6.244;2024-02-26T06:32:07;3.20;99.90
51733;DHT22;39139;53.144;6.244;2024-02-26T06:34:33;3.40;99.90
51733;DHT22;39139;53.144;6.244;2024-02-26T06:36:59;3.20;99.90
51733;DHT22;39139;53.144;6.244;2024-02-26T06:39:24;3.70;99.90
51733;DHT22;39139;53.144;6.244;2024-02-26T06:41:50;4.20;99.90
51733;DHT22;39139;53.144;6.244;2024-02-26T06:44:15;3.30;99.90
51733;DHT22;39139;53.144;6.244;2024-02-26T06:46:41;3.00;99.90
51733;DHT22;39139;53.144;6.244;2024-02-26T06:49:07;3.00;99.90
51733;DHT22;39139;53.144;6.244;2024-02-26T06:51:32;3.10;99.90
51733;DHT22;39139;53.144;6.244;2024-02-26T06:53:58;3.00;99.90
51733;DHT22;39139;53.144;6.244;2024-02-26T06:56:24;3.10;99.90
51733;DHT22;39139;53.144;6.244;2024-02-26T06:58:49;3.60;99.90
51733;DHT22;39139;53.144;6.244;2024-02-26T07:01:15;3.00;99.90
51733;DHT22;39139;53.144;6.244;2024-02-26T07:03:41;3.00;99.90
51733;DHT22;39139;53.144;6.244;2024-02-26T07:06:06;3.30;99.90
51733;DHT22;39139;53.144;6.244;2024-02-26T07:08:32;3.00;99.90
51733;DHT22;39139;53.144;6.244;2024-02-26T07:10:58;3.00;99.90
51733;DHT22;39139;53.144;6.244;2024-02-26T07:13:23;3.30;99.90
51733;DHT22;39139;53.144;6.244;2024-02-26T07:15:49;3.40;99.90
51733;DHT22;39139;53.144;6.244;2024-02-26T07:18:15;3.70;99.90
51733;DHT22;39139;53.144;6.244;2024-02-26T07:20:40;3.30;99.90
51733;DHT22;39139;53.144;6.244;2024-02-26T07:23:06;3.50;99.90
51733;DHT22;39139;53.144;6.244;2024-02-26T07:25:32;2.90;99.90
51733;DHT22;39139;53.144;6.244;2024-02-26T07:27:58;3.30;99.90
51733;DHT22;39139;53.144;6.244;2024-02-26T07:30:23;3.20;99.90
51733;DHT22;39139;53.144;6.244;2024-02-26T07:32:50;3.20;99.90
51733;DHT22;39139;53.144;6.244;2024-02-26T07:35:16;2.40;99.90
51733;DHT22;39139;53.144;6.244;2024-02-26T07:37:43;3.40;99.90
51733;DHT22;39139;53.144;6.244;2024-02-26T07:40:09;3.40;99.90
51733;DHT22;39139;53.144;6.244;2024-02-26T07:42:34;3.70;99.90
51733;DHT22;39139;53.144;6.244;2024-02-26T07:45:00;3.50;99.90
51733;DHT22;39139;53.144;6.244;2024-02-26T07:47:26;4.30;99.90
51733;DHT22;39139;53.144;6.244;2024-02-26T07:49:51;3.50;99.90
51733;DHT22;39139;53.144;6.244;2024-02-26T07:52:17;3.90;99.90
51733;DHT22;39139;53.144;6.244;2024-02-26T07:54:42;4.30;99.90
51733;DHT22;39139;53.144;6.244;2024-02-26T07:57:08;3.50;99.90
51733;DHT22;39139;53.144;6.244;2024-02-26T07:59:34;3.60;99.90
51733;DHT22;39139;53.144;6.244;2024-02-26T08:01:59;3.50;99.90
51733;DHT22;39139;53.144;6.244;2024-02-26T08:04:28;3.70;99.90
51733;DHT22;39139;53.144;6.244;2024-02-26T08:06:54;3.60;99.90
51733;DHT22;39139;53.144;6.244;2024-02-26T08:09:19;3.70;99.90
51733;DHT22;39139;53.144;6.244;2024-02-26T08:11:45;3.60;99.90
51733;DHT22;39139;53.144;6.244;2024-02-26T08:14:11;3.70;99.90
51733;DHT22;39139;53.144;6.244;2024-02-26T08:16:36;3.90;99.90
51733;DHT22;39139;53.144;6.244;2024-02-26T08:19:02;3.80;99.90
51733;DHT22;39139;53.144;6.244;2024-02-26T08:21:27;3.90;99.90
51733;DHT22;39139;53.144;6.244;2024-02-26T08:23:53;3.80;99.90
51733;DHT22;39139;53.144;6.244;2024-02-26T08:26:19;3.90;99.90
51733;DHT22;39139;53.144;6.244;2024-02-26T08:28:46;3.90;99.90
51733;DHT22;39139;53.144;6.244;2024-02-26T08:31:12;3.80;99.90
51733;DHT22;39139;53.144;6.244;2024-02-26T08:33:38;3.80;99.90
51733;DHT22;39139;53.144;6.244;2024-02-26T08:36:05;4.00;99.90
51733;DHT22;39139;53.144;6.244;2024-02-26T08:38:31;3.90;99.90
51733;DHT22;39139;53.144;6.244;2024-02-26T08:40:57;4.60;99.90
51733;DHT22;39139;53.144;6.244;2024-02-26T08:43:22;4.10;99.90
51733;DHT22;39139;53.144;6.244;2024-02-26T08:45:48;3.90;99.90
51733;DHT22;39139;53.144;6.244;2024-02-26T08:48:13;4.00;99.90
51733;DHT22;39139;53.144;6.244;2024-02-26T08:50:39;4.30;99.90
51733;DHT22;39139;53.144;6.244;2024-02-26T08:53:05;4.10;99.90
51733;DHT22;39139;53.144;6.244;2024-02-26T08:55:31;4.20;99.90
51733;DHT22;39139;53.144;6.244;2024-02-26T08:57:56;4.10;99.90
51733;DHT22;39139;53.144;6.244;2024-02-26T09:00:22;4.30;99.90
51733;DHT22;39139;53.144;6.244;2024-02-26T09:02:48;4.50;99.90
51733;DHT22;39139;53.144;6.244;2024-02-26T09:05:14;4.30;99.90
51733;DHT22;39139;53.144;6.244;2024-02-26T09:07:40;4.40;99.90
51733;DHT22;39139;53.144;6.244;2024-02-26T09:10:06;4.60;99.90
51733;DHT22;39139;53.144;6.244;2024-02-26T09:12:34;4.50;99.90
51733;DHT22;39139;53.144;6.244;2024-02-26T09:15:00;4.30;99.90
51733;DHT22;39139;53.144;6.244;2024-02-26T09:17:25;5.20;99.90
51733;DHT22;39139;53.144;6.244;2024-02-26T09:19:51;4.60;99.90
51733;DHT22;39139;53.144;6.244;2024-02-26T09:22:16;4.50;99.90
51733;DHT22;39139;53.144;6.244;2024-02-26T09:24:42;4.70;99.90
51733;DHT22;39139;53.144;6.244;2024-02-26T09:27:08;4.70;99.90
51733;DHT22;39139;53.144;6.244;2024-02-26T09:29:35;4.60;99.90
51733;DHT22;39139;53.144;6.244;2024-02-26T09:32:01;4.60;99.90
51733;DHT22;39139;53.144;6.244;2024-02-26T09:34:26;4.70;99.90
51733;DHT22;39139;53.144;6.244;2024-02-26T09:36:52;4.80;99.90
51733;DHT22;39139;53.144;6.244;2024-02-26T09:39:18;4.80;99.90
51733;DHT22;39139;53.144;6.244;2024-02-26T09:41:47;4.90;99.90
51733;DHT22;39139;53.144;6.244;2024-02-26T09:44:19;5.00;99.90
51733;DHT22;39139;53.144;6.244;2024-02-26T09:46:48;4.90;99.90
51733;DHT22;39139;53.144;6.244;2024-02-26T09:49:17;4.90;99.90
51733;DHT22;39139;53.144;6.244;2024-02-26T09:51:43;5.00;99.90
51733;DHT22;39139;53.144;6.244;2024-02-26T09:54:09;5.10;99.90
51733;DHT22;39139;53.144;6.244;2024-02-26T09:56:38;5.10;99.90
51733;DHT22;39139;53.144;6.244;2024-02-26T09:59:06;5.10;99.90
51733;DHT22;39139;53.144;6.244;2024-02-26T10:01:36;5.00;99.90
51733;DHT22;39139;53.144;6.244;2024-02-26T10:04:04;5.20;99.90
51733;DHT22;39139;53.144;6.244;2024-02-26T10:06:30;5.00;99.90
51733;DHT22;39139;53.144;6.244;2024-02-26T10:08:56;5.10;99.90
51733;DHT22;39139;53.144;6.244;2024-02-26T10:11:24;5.10;99.90
51733;DHT22;39139;53.144;6.244;2024-02-26T10:13:49;5.20;99.90
51733;DHT22;39139;53.144;6.244;2024-02-26T10:16:16;5.20;99.90
51733;DHT22;39139;53.144;6.244;2024-02-26T10:18:52;5.30;99.90
51733;DHT22;39139;53.144;6.244;2024-02-26T10:21:22;5.40;99.90
51733;DHT22;39139;53.144;6.244;2024-02-26T10:23:48;5.40;99.90
51733;DHT22;39139;53.144;6.244;2024-02-26T10:26:15;5.30;99.90
51733;DHT22;39139;53.144;6.244;2024-02-26T10:28:42;5.30;99.90
51733;DHT22;39139;53.144;6.244;2024-02-26T10:31:09;5.60;99.90
51733;DHT22;39139;53.144;6.244;2024-02-26T10:33:36;5.30;99.90
51733;DHT22;39139;53.144;6.244;2024-02-26T10:36:03;5.60;99.90
51733;DHT22;39139;53.144;6.244;2024-02-26T10:38:30;5.50;99.90
51733;DHT22;39139;53.144;6.244;2024-02-26T10:40:55;6.10;99.90
51733;DHT22;39139;53.144;6.244;2024-02-26T10:43:21;5.40;99.90
51733;DHT22;39139;53.144;6.244;2024-02-26T10:45:47;5.50;99.90
51733;DHT22;39139;53.144;6.244;2024-02-26T10:48:14;5.50;99.90
51733;DHT22;39139;53.144;6.244;2024-02-26T10:50:40;5.40;99.90
51733;DHT22;39139;53.144;6.244;2024-02-26T10:53:12;5.50;99.90
51733;DHT22;39139;53.144;6.244;2024-02-26T10:55:41;5.50;99.90
51733;DHT22;39139;53.144;6.244;2024-02-26T10:58:08;5.70;99.90
51733;DHT22;39139;53.144;6.244;2024-02-26T11:00:34;5.40;99.90
51733;DHT22;39139;53.144;6.244;2024-02-26T11:03:02;5.60;99.90
51733;DHT22;39139;53.144;6.244;2024-02-26T11:05:31;5.80;99.90
51733;DHT22;39139;53.144;6.244;2024-02-26T11:07:59;6.00;99.90
51733;DHT22;39139;53.144;6.244;2024-02-26T11:10:27;5.90;99.90
51733;DHT22;39139;53.144;6.244;2024-02-26T11:12:55;5.90;99.90
51733;DHT22;39139;53.144;6.244;2024-02-26T11:15:23;6.00;99.90
51733;DHT22;39139;53.144;6.244;2024-02-26T11:17:52;5.80;99.90
51733;DHT22;39139;53.144;6.244;2024-02-26T11:20:19;5.80;99.90
51733;DHT22;39139;53.144;6.244;2024-02-26T11:22:45;5.70;99.90
51733;DHT22;39139;53.144;6.244;2024-02-26T11:25:11;5.70;99.90
51733;DHT22;39139;53.144;6.244;2024-02-26T11:27:44;5.80;99.90
51733;DHT22;39139;53.144;6.244;2024-02-26T11:30:13;5.60;99.90
51733;DHT22;39139;53.144;6.244;2024-02-26T11:32:44;5.80;99.90
51733;DHT22;39139;53.144;6.244;2024-02-26T11:35:10;5.70;99.90
51733;DHT22;39139;53.144;6.244;2024-02-26T11:37:39;5.80;99.90
51733;DHT22;39139;53.144;6.244;2024-02-26T11:40:11;5.90;99.90
51733;DHT22;39139;53.144;6.244;2024-02-26T11:42:44;5.80;99.90
51733;DHT22;39139;53.144;6.244;2024-02-26T11:48:24;6.10;99.90
51733;DHT22;39139;53.144;6.244;2024-02-26T11:50:51;6.30;99.90
51733;DHT22;39139;53.144;6.244;2024-02-26T11:53:28;6.00;99.90
51733;DHT22;39139;53.144;6.244;2024-02-26T11:59:08;6.30;99.90
51733;DHT22;39139;53.144;6.244;2024-02-26T12:01:41;6.10;99.90
51733;DHT22;39139;53.144;6.244;2024-02-26T12:04:28;6.20;99.90
51733;DHT22;39139;53.144;6.244;2024-02-26T12:07:00;6.10;99.90
51733;DHT22;39139;53.144;6.244;2024-02-26T12:12:06;6.20;99.90
51733;DHT22;39139;53.144;6.244;2024-02-26T12:14:51;6.20;99.90
51733;DHT22;39139;53.144;6.244;2024-02-26T12:17:25;6.00;99.90
51733;DHT22;39139;53.144;6.244;2024-02-26T12:19:51;6.10;99.90
51733;DHT22;39139;53.144;6.244;2024-02-26T12:22:19;6.30;99.90
51733;DHT22;39139;53.144;6.244;2024-02-26T12:24:45;6.00;99.90
51733;DHT22;39139;53.144;6.244;2024-02-26T12:27:10;6.10;99.90
51733;DHT22;39139;53.144;6.244;2024-02-26T12:29:36;6.40;99.90
51733;DHT22;39139;53.144;6.244;2024-02-26T12:32:03;6.10;99.90
51733;DHT22;39139;53.144;6.244;2024-02-26T12:34:29;6.20;99.90
51733;DHT22;39139;53.144;6.244;2024-02-26T12:36:55;6.10;99.90
51733;DHT22;39139;53.144;6.244;2024-02-26T12:39:21;6.00;99.90
51733;DHT22;39139;53.144;6.244;2024-02-26T12:41:47;6.30;99.90
51733;DHT22;39139;53.144;6.244;2024-02-26T12:44:18;6.10;99.90
51733;DHT22;39139;53.144;6.244;2024-02-26T12:46:44;6.10;99.90
51733;DHT22;39139;53.144;6.244;2024-02-26T12:49:15;6.20;99.90
51733;DHT22;39139;53.144;6.244;2024-02-26T12:51:44;6.10;99.90
51733;DHT22;39139;53.144;6.244;2024-02-26T12:54:10;6.00;99.90
51733;DHT22;39139;53.144;6.244;2024-02-26T12:56:36;5.90;99.90
51733;DHT22;39139;53.144;6.244;2024-02-26T12:59:02;6.00;99.90
51733;DHT22;39139;53.144;6.244;2024-02-26T13:01:29;6.30;99.90
51733;DHT22;39139;53.144;6.244;2024-02-26T13:03:55;5.70;99.90
51733;DHT22;39139;53.144;6.244;2024-02-26T13:06:22;5.90;99.90
51733;DHT22;39139;53.144;6.244;2024-02-26T13:08:48;6.00;99.90
51733;DHT22;39139;53.144;6.244;2024-02-26T13:11:14;6.00;99.90
51733;DHT22;39139;53.144;6.244;2024-02-26T13:13:40;5.90;99.90
51733;DHT22;39139;53.144;6.244;2024-02-26T13:16:07;5.90;99.90
51733;DHT22;39139;53.144;6.244;2024-02-26T13:18:34;6.00;99.90
51733;DHT22;39139;53.144;6.244;2024-02-26T13:21:08;5.90;99.90
51733;DHT22;39139;53.144;6.244;2024-02-26T13:23:34;5.80;99.90
51733;DHT22;39139;53.144;6.244;2024-02-26T13:26:00;5.80;99.90
51733;DHT22;39139;53.144;6.244;2024-02-26T13:28:25;5.80;99.90
51733;DHT22;39139;53.144;6.244;2024-02-26T13:30:57;5.80;99.90
51733;DHT22;39139;53.144;6.244;2024-02-26T13:33:27;5.90;99.90
51733;DHT22;39139;53.144;6.244;2024-02-26T13:35:55;5.80;99.90
51733;DHT22;39139;53.144;6.244;2024-02-26T13:38:20;5.80;99.90
51733;DHT22;39139;53.144;6.244;2024-02-26T13:40:46;5.90;99.90
51733;DHT22;39139;53.144;6.244;2024-02-26T13:43:12;5.50;99.90
51733;DHT22;39139;53.144;6.244;2024-02-26T13:45:38;5.90;99.90
51733;DHT22;39139;53.144;6.244;2024-02-26T13:48:07;5.80;99.90
51733;DHT22;39139;53.144;6.244;2024-02-26T13:50:33;5.80;99.90
51733;DHT22;39139;53.144;6.244;2024-02-26T13:52:58;5.80;99.90
51733;DHT22;39139;53.144;6.244;2024-02-26T13:55:28;5.80;99.90
51733;DHT22;39139;53.144;6.244;2024-02-26T13:57:56;6.00;99.90
51733;DHT22;39139;53.144;6.244;2024-02-26T14:00:22;5.80;99.90
51733;DHT22;39139;53.144;6.244;2024-02-26T14:02:47;5.90;99.90
51733;DHT22;39139;53.144;6.244;2024-02-26T14:05:13;6.00;99.90
51733;DHT22;39139;53.144;6.244;2024-02-26T14:07:42;5.90;99.90
51733;DHT22;39139;53.144;6.244;2024-02-26T14:10:08;5.80;99.90
51733;DHT22;39139;53.144;6.244;2024-02-26T14:12:37;5.90;99.90
51733;DHT22;39139;53.144;6.244;2024-02-26T14:15:03;5.80;99.90
51733;DHT22;39139;53.144;6.244;2024-02-26T14:17:30;5.80;99.90
51733;DHT22;39139;53.144;6.244;2024-02-26T14:19:56;5.60;99.90
51733;DHT22;39139;53.144;6.244;2024-02-26T14:22:21;5.70;99.90
51733;DHT22;39139;53.144;6.244;2024-02-26T14:24:47;5.70;99.90
51733;DHT22;39139;53.144;6.244;2024-02-26T14:27:13;5.80;99.90
51733;DHT22;39139;53.144;6.244;2024-02-26T14:29:45;6.00;99.90
51733;DHT22;39139;53.144;6.244;2024-02-26T14:32:11;5.60;99.90
51733;DHT22;39139;53.144;6.244;2024-02-26T14:34:39;5.70;99.90
51733;DHT22;39139;53.144;6.244;2024-02-26T14:37:05;5.40;99.90
51733;DHT22;39139;53.144;6.244;2024-02-26T14:39:32;5.60;99.90
51733;DHT22;39139;53.144;6.244;2024-02-26T14:41:58;5.70;99.90
51733;DHT22;39139;53.144;6.244;2024-02-26T14:44:24;5.60;99.90
51733;DHT22;39139;53.144;6.244;2024-02-26T14:46:50;5.60;99.90
51733;DHT22;39139;53.144;6.244;2024-02-26T14:49:16;5.70;99.90
51733;DHT22;39139;53.144;6.244;2024-02-26T14:51:43;5.60;99.90
51733;DHT22;39139;53.144;6.244;2024-02-26T14:54:11;5.60;99.90
51733;DHT22;39139;53.144;6.244;2024-02-26T14:56:37;5.60;99.90
51733;DHT22;39139;53.144;6.244;2024-02-26T14:59:02;5.60;99.90
51733;DHT22;39139;53.144;6.244;2024-02-26T15:01:28;5.70;99.90
51733;DHT22;39139;53.144;6.244;2024-02-26T15:03:54;5.60;99.90
51733;DHT22;39139;53.144;6.244;2024-02-26T15:06:20;5.70;99.90
51733;DHT22;39139;53.144;6.244;2024-02-26T15:08:45;5.60;99.90
51733;DHT22;39139;53.144;6.244;2024-02-26T15:11:11;6.00;99.90
51733;DHT22;39139;53.144;6.244;2024-02-26T15:13:37;5.50;99.90
51733;DHT22;39139;53.144;6.244;2024-02-26T15:16:03;6.10;99.90
51733;DHT22;39139;53.144;6.244;2024-02-26T15:18:29;5.70;99.90
51733;DHT22;39139;53.144;6.244;2024-02-26T15:20:57;5.50;99.90
51733;DHT22;39139;53.144;6.244;2024-02-26T15:23:22;5.50;99.90
51733;DHT22;39139;53.144;6.244;2024-02-26T15:25:48;5.60;99.90
51733;DHT22;39139;53.144;6.244;2024-02-26T15:28:14;5.60;99.90
51733;DHT22;39139;53.144;6.244;2024-02-26T15:30:40;6.10;99.90
51733;DHT22;39139;53.144;6.244;2024-02-26T15:33:06;5.80;99.90
51733;DHT22;39139;53.144;6.244;2024-02-26T15:35:32;5.80;99.90
51733;DHT22;39139;53.144;6.244;2024-02-26T15:37:57;5.50;99.90
51733;DHT22;39139;53.144;6.244;2024-02-26T15:40:24;5.40;99.90
51733;DHT22;39139;53.144;6.244;2024-02-26T15:42:50;5.60;99.90
51733;DHT22;39139;53.144;6.244;2024-02-26T15:45:16;5.50;99.90
51733;DHT22;39139;53.144;6.244;2024-02-26T15:47:42;5.40;99.90
51733;DHT22;39139;53.144;6.244;2024-02-26T15:50:08;5.40;99.90